createdAt,value
2023-03-04T00:00:16.623Z,70.92
2023-03-04T00:01:18.630Z,69.68
2023-03-04T00:02:20.540Z,70.02
2023-03-04T00:03:22.389Z,69.53
2023-03-04T00:04:24.227Z,70.85
2023-03-04T00:05:26.082Z,68.23
2023-03-04T00:06:28.038Z,69.77
2023-03-04T00:07:29.991Z,71.90
2023-03-04T00:08:31.766Z,70.58
2023-03-04T00:09:33.548Z,71.73
2023-03-04T00:10:35.461Z,69.15
2023-03-04T00:11:37.305Z,70.50
2023-03-04T00:12:39.052Z,71.02
2023-03-04T00:13:40.811Z,68.48
2023-03-04T00:14:42.646Z,69.52
2023-03-04T00:15:44.390Z,66.45
2023-03-04T00:16:46.377Z,67.43
2023-03-04T00:17:48.187Z,64.13
2023-03-04T00:18:50.009Z,67.10
2023-03-04T00:19:52.111Z,66.40
2023-03-04T00:20:53.996Z,65.25
2023-03-04T00:21:56.137Z,64.92
2023-03-04T00:22:57.899Z,64.62
2023-03-04T00:23:59.806Z,65.00
2023-03-04T00:25:01.603Z,66.33
2023-03-04T00:26:03.436Z,64.27
2023-03-04T00:27:05.283Z,66.97
2023-03-04T00:28:07.195Z,66.40
2023-03-04T00:29:08.993Z,66.00
2023-03-04T00:30:11.224Z,67.62
2023-03-04T00:31:13.056Z,67.60
2023-03-04T00:32:16.270Z,66.03
2023-03-04T00:33:18.114Z,65.62
2023-03-04T00:34:20.128Z,62.52
2023-03-04T00:35:21.983Z,63.45
2023-03-04T00:36:23.982Z,64.27
2023-03-04T00:37:26.111Z,64.68
2023-03-04T00:38:28.626Z,65.00
2023-03-04T00:39:30.958Z,64.35
2023-03-04T00:40:32.903Z,65.23
2023-03-04T00:41:34.691Z,64.33
2023-03-04T00:42:36.558Z,64.27
2023-03-04T00:43:38.434Z,66.22
2023-03-04T00:44:40.385Z,65.78
2023-03-04T00:45:42.215Z,62.60
2023-03-04T00:46:44.003Z,63.40
2023-03-04T00:47:45.789Z,62.20
2023-03-04T00:48:47.858Z,64.82
2023-03-04T00:49:49.765Z,63.17
2023-03-04T00:50:54.004Z,64.37
2023-03-04T00:51:55.837Z,60.53
2023-03-04T00:52:57.634Z,61.55
2023-03-04T00:54:00.902Z,63.08
2023-03-04T00:55:03.000Z,62.27
2023-03-04T00:56:05.165Z,64.25
2023-03-04T00:57:07.036Z,63.60
2023-03-04T00:58:08.906Z,62.28
2023-03-04T00:59:10.730Z,61.75
2023-03-04T01:00:13.217Z,61.55
2023-03-04T01:01:15.222Z,62.77
2023-03-04T01:02:17.162Z,62.48
2023-03-04T01:03:19.099Z,61.40
2023-03-04T01:04:21.060Z,59.10
2023-03-04T01:05:23.031Z,61.30
2023-03-04T01:06:25.083Z,62.68
2023-03-04T01:07:26.881Z,60.97
2023-03-04T01:08:28.938Z,61.17
2023-03-04T01:09:31.685Z,60.72
2023-03-04T01:10:33.650Z,62.82
2023-03-04T01:11:35.581Z,61.02
2023-03-04T01:12:37.395Z,62.53
2023-03-04T01:13:39.786Z,64.45
2023-03-04T01:14:41.574Z,62.65
2023-03-04T01:15:43.546Z,63.48
2023-03-04T01:16:46.209Z,65.88
2023-03-04T01:17:48.065Z,62.75
2023-03-04T01:18:49.878Z,61.97
2023-03-04T01:19:51.692Z,63.55
2023-03-04T01:20:53.544Z,61.18
2023-03-04T01:21:55.435Z,59.73
2023-03-04T01:22:57.181Z,62.00
2023-03-04T01:23:58.981Z,62.23
2023-03-04T01:25:01.136Z,61.00
2023-03-04T01:26:03.048Z,61.48
2023-03-04T01:27:04.961Z,60.87
2023-03-04T01:28:07.030Z,59.10
2023-03-04T01:29:08.805Z,61.22
2023-03-04T01:30:11.545Z,60.25
2023-03-04T01:31:13.478Z,59.57
2023-03-04T01:32:15.552Z,60.65
2023-03-04T01:33:17.468Z,61.03
2023-03-04T01:34:19.308Z,63.23
2023-03-04T01:35:21.126Z,61.40
2023-03-04T01:36:22.999Z,62.20
2023-03-04T01:37:25.012Z,62.38
2023-03-04T01:38:26.884Z,61.25
2023-03-04T01:39:28.694Z,62.85
2023-03-04T01:40:31.554Z,61.07
2023-03-04T01:41:33.431Z,61.87
2023-03-04T01:42:36.196Z,59.90
2023-03-04T01:43:38.506Z,63.03
2023-03-04T01:44:40.300Z,62.82
2023-03-04T01:45:42.123Z,60.57
2023-03-04T01:46:48.910Z,63.88
2023-03-04T01:47:51.745Z,61.97
2023-03-04T01:48:53.676Z,61.63
2023-03-04T01:49:57.212Z,63.55
2023-03-04T01:51:02.972Z,61.02
2023-03-04T01:52:04.855Z,60.88
2023-03-04T01:53:06.751Z,61.10
2023-03-04T01:54:09.252Z,60.23
2023-03-04T01:55:22.337Z,60.12
2023-03-04T01:56:35.423Z,62.07
2023-03-04T01:57:39.477Z,60.02
2023-03-04T01:58:41.361Z,61.32
2023-03-04T01:59:43.464Z,62.03
2023-03-04T02:00:45.299Z,60.98
2023-03-04T02:01:49.663Z,61.92
2023-03-04T02:02:55.547Z,62.12
2023-03-04T02:03:57.401Z,62.57
2023-03-04T02:04:59.248Z,62.05
2023-03-04T02:06:01.146Z,59.83
2023-03-04T02:07:04.259Z,57.98
2023-03-04T02:08:07.181Z,59.32
2023-03-04T02:09:09.286Z,61.17
2023-03-04T02:10:12.178Z,60.98
2023-03-04T02:11:13.965Z,60.83
2023-03-04T02:12:15.721Z,61.62
2023-03-04T02:13:18.125Z,60.73
2023-03-04T02:14:21.287Z,61.08
2023-03-04T02:15:23.519Z,59.90
2023-03-04T02:16:26.334Z,61.18
2023-03-04T02:17:28.882Z,61.38
2023-03-04T02:18:30.746Z,61.27
2023-03-04T02:19:50.886Z,59.32
2023-03-04T02:21:05.413Z,60.15
2023-03-04T02:22:07.297Z,58.60
2023-03-04T02:23:12.147Z,56.77
2023-03-04T02:24:24.883Z,59.97
2023-03-04T02:25:36.338Z,61.40
2023-03-04T02:26:41.370Z,62.33
2023-03-04T02:27:43.406Z,60.77
2023-03-04T02:28:46.261Z,61.75
2023-03-04T02:29:48.246Z,59.70
2023-03-04T02:30:50.169Z,61.33
2023-03-04T02:31:53.882Z,64.50
2023-03-04T02:32:55.872Z,60.87
2023-03-04T02:34:00.963Z,58.52
2023-03-04T02:35:02.814Z,58.17
2023-03-04T02:36:04.923Z,57.98
2023-03-04T02:37:07.049Z,58.78
2023-03-04T02:38:10.645Z,60.00
2023-03-04T02:39:13.812Z,59.20
2023-03-04T02:40:32.992Z,62.75
2023-03-04T02:41:35.221Z,61.63
2023-03-04T02:42:36.954Z,63.37
2023-03-04T02:43:38.782Z,60.58
2023-03-04T02:44:47.649Z,62.92
2023-03-04T02:45:50.961Z,61.15
2023-03-04T02:46:53.653Z,60.15
2023-03-04T02:47:55.549Z,61.57
2023-03-04T02:48:57.364Z,59.93
2023-03-04T02:49:59.334Z,59.90
2023-03-04T02:51:01.130Z,61.45
2023-03-04T02:52:09.825Z,60.82
2023-03-04T02:53:11.695Z,61.68
2023-03-04T02:54:23.005Z,59.72
2023-03-04T02:55:24.957Z,61.32
2023-03-04T02:56:26.856Z,61.68
2023-03-04T02:57:28.705Z,63.12
2023-03-04T02:58:30.600Z,61.08
2023-03-04T02:59:32.440Z,62.90
2023-03-04T03:00:34.591Z,60.63
2023-03-04T03:01:36.477Z,62.18
2023-03-04T03:02:38.275Z,61.63
2023-03-04T03:03:40.069Z,63.08
2023-03-04T03:04:41.997Z,62.57
2023-03-04T03:05:43.865Z,60.50
2023-03-04T03:06:45.768Z,58.73
2023-03-04T03:07:47.639Z,60.40
2023-03-04T03:08:49.465Z,62.28
2023-03-04T03:09:51.278Z,64.30
2023-03-04T03:10:53.173Z,62.50
2023-03-04T03:11:54.934Z,62.47
2023-03-04T03:12:56.701Z,62.45
2023-03-04T03:13:58.452Z,62.43
2023-03-04T03:15:00.242Z,61.97
2023-03-04T03:16:02.144Z,60.40
2023-03-04T03:17:04.075Z,63.32
2023-03-04T03:18:05.903Z,64.25
2023-03-04T03:19:07.894Z,61.13
2023-03-04T03:20:11.663Z,63.17
2023-03-04T03:21:13.531Z,63.13
2023-03-04T03:22:15.448Z,62.27
2023-03-04T03:23:18.135Z,61.95
2023-03-04T03:24:20.423Z,59.90
2023-03-04T03:25:22.174Z,61.35
2023-03-04T03:26:23.922Z,64.70
2023-03-04T03:27:25.706Z,64.62
2023-03-04T03:28:27.758Z,70.28
2023-03-04T03:29:29.610Z,68.53
2023-03-04T03:30:32.772Z,66.53
2023-03-04T03:31:34.674Z,62.73
2023-03-04T03:32:36.696Z,61.95
2023-03-04T03:33:38.617Z,62.72
2023-03-04T03:34:40.431Z,60.83
2023-03-04T03:35:42.250Z,61.08
2023-03-04T03:36:44.050Z,62.15
2023-03-04T03:37:45.981Z,61.28
2023-03-04T03:38:47.760Z,61.25
2023-03-04T03:39:49.742Z,61.63
2023-03-04T03:40:51.567Z,63.77
2023-03-04T03:41:53.427Z,63.45
2023-03-04T03:42:55.333Z,64.92
2023-03-04T03:43:57.157Z,64.50
2023-03-04T03:44:58.967Z,65.53
2023-03-04T03:46:00.782Z,65.40
2023-03-04T03:47:03.178Z,66.88
2023-03-04T03:48:05.085Z,65.52
2023-03-04T03:49:06.959Z,65.58
2023-03-04T03:50:09.308Z,68.00
2023-03-04T03:51:11.327Z,67.47
2023-03-04T03:52:13.378Z,66.72
2023-03-04T03:53:15.190Z,68.65
2023-03-04T03:54:16.988Z,66.97
2023-03-04T03:55:18.762Z,67.17
2023-03-04T03:56:20.798Z,66.25
2023-03-04T03:57:22.656Z,66.67
2023-03-04T03:58:26.861Z,63.53
2023-03-04T03:59:28.799Z,63.07
2023-03-04T04:00:30.589Z,66.67
2023-03-04T04:01:33.610Z,66.72
2023-03-04T04:02:35.587Z,64.37
2023-03-04T04:03:37.466Z,64.17
2023-03-04T04:04:39.271Z,62.62
2023-03-04T04:05:41.079Z,63.38
2023-03-04T04:06:42.914Z,63.85
2023-03-04T04:07:44.818Z,62.80
2023-03-04T04:08:46.597Z,64.68
2023-03-04T04:09:48.541Z,62.63
2023-03-04T04:10:50.579Z,62.93
2023-03-04T04:11:52.395Z,61.80
2023-03-04T04:12:54.190Z,63.52
2023-03-04T04:13:55.994Z,62.75
2023-03-04T04:14:57.813Z,63.72
2023-03-04T04:15:59.673Z,64.32
2023-03-04T04:17:01.640Z,62.68
2023-03-04T04:18:03.401Z,63.60
2023-03-04T04:19:05.237Z,64.08
2023-03-04T04:20:08.490Z,67.45
2023-03-04T04:21:10.341Z,63.83
2023-03-04T04:22:17.874Z,61.68
2023-03-04T04:23:19.660Z,61.30
2023-03-04T04:24:21.584Z,59.90
2023-03-04T04:25:23.545Z,60.37
2023-03-04T04:26:25.565Z,60.77
2023-03-04T04:27:27.373Z,62.80
2023-03-04T04:28:29.188Z,62.90
2023-03-04T04:29:31.553Z,60.40
2023-03-04T04:30:33.403Z,58.97
2023-03-04T04:31:35.986Z,60.63
2023-03-04T04:32:37.791Z,60.75
2023-03-04T04:33:39.601Z,59.57
2023-03-04T04:34:41.396Z,58.78
2023-03-04T04:35:43.553Z,58.88
2023-03-04T04:36:45.426Z,59.93
2023-03-04T04:37:47.255Z,58.58
2023-03-04T04:38:49.431Z,58.85
2023-03-04T04:39:51.895Z,57.25
2023-03-04T04:40:53.813Z,59.70
2023-03-04T04:41:55.588Z,61.08
2023-03-04T04:42:57.340Z,60.02
2023-03-04T04:43:59.164Z,59.32
2023-03-04T04:45:01.056Z,58.60
2023-03-04T04:46:02.824Z,60.05
2023-03-04T04:47:07.199Z,58.90
2023-03-04T04:48:09.119Z,60.23
2023-03-04T04:49:10.932Z,59.98
2023-03-04T04:50:13.353Z,59.90
2023-03-04T04:51:15.246Z,59.02
2023-03-04T04:52:17.415Z,58.57
2023-03-04T04:53:19.191Z,57.35
2023-03-04T04:54:21.122Z,56.52
2023-03-04T04:55:22.904Z,58.37
2023-03-04T04:56:26.395Z,61.57
2023-03-04T04:57:28.335Z,60.17
2023-03-04T04:58:30.166Z,59.63
2023-03-04T04:59:33.004Z,57.90
2023-03-04T05:00:34.943Z,59.63
2023-03-04T05:01:37.376Z,60.33
2023-03-04T05:02:39.671Z,64.35
2023-03-04T05:03:42.164Z,63.32
2023-03-04T05:04:43.965Z,62.23
2023-03-04T05:05:45.952Z,60.38
2023-03-04T05:06:47.758Z,60.18
2023-03-04T05:07:49.692Z,57.93
2023-03-04T05:08:52.037Z,57.70
2023-03-04T05:09:53.954Z,59.68
2023-03-04T05:10:55.800Z,58.70
2023-03-04T05:11:57.702Z,59.38
2023-03-04T05:12:59.450Z,59.93
2023-03-04T05:14:01.250Z,58.48
2023-03-04T05:15:05.222Z,56.65
2023-03-04T05:16:07.610Z,58.45
2023-03-04T05:17:09.530Z,60.92
2023-03-04T05:18:11.556Z,59.65
2023-03-04T05:19:13.430Z,61.67
2023-03-04T05:20:15.233Z,61.90
2023-03-04T05:21:17.055Z,61.88
2023-03-04T05:22:18.813Z,59.82
2023-03-04T05:23:21.115Z,59.27
2023-03-04T05:24:22.950Z,59.07
2023-03-04T05:25:24.724Z,56.58
2023-03-04T05:26:26.681Z,56.98
2023-03-04T05:27:28.544Z,57.22
2023-03-04T05:28:30.471Z,57.87
2023-03-04T05:29:32.334Z,57.17
2023-03-04T05:30:34.218Z,59.05
2023-03-04T05:31:36.491Z,57.90
2023-03-04T05:32:38.606Z,56.10
2023-03-04T05:33:40.545Z,54.50
2023-03-04T05:34:42.357Z,54.60
2023-03-04T05:35:45.329Z,58.92
2023-03-04T05:36:47.129Z,58.83
2023-03-04T05:37:53.170Z,57.03
2023-03-04T05:38:55.037Z,55.30
2023-03-04T05:39:56.882Z,54.77
2023-03-04T05:41:00.693Z,55.65
2023-03-04T05:42:02.492Z,59.43
2023-03-04T05:43:04.871Z,60.18
2023-03-04T05:44:06.774Z,62.65
2023-03-04T05:45:08.875Z,63.52
2023-03-04T05:46:15.360Z,60.38
2023-03-04T05:47:17.631Z,60.87
2023-03-04T05:48:19.543Z,58.07
2023-03-04T05:49:21.429Z,56.90
2023-03-04T05:50:24.072Z,54.70
2023-03-04T05:51:25.925Z,54.53
2023-03-04T05:52:27.699Z,54.83
2023-03-04T05:53:29.537Z,57.27
2023-03-04T05:54:31.401Z,58.23
2023-03-04T05:55:33.257Z,57.43
2023-03-04T05:56:35.101Z,57.20
2023-03-04T05:57:37.018Z,58.05
2023-03-04T05:58:39.263Z,53.45
2023-03-04T05:59:41.172Z,56.25
2023-03-04T06:00:43.677Z,52.80
2023-03-04T06:01:45.475Z,50.48
2023-03-04T06:02:47.361Z,52.27
2023-03-04T06:03:49.363Z,52.62
2023-03-04T06:04:51.237Z,52.68
2023-03-04T06:05:54.052Z,51.53
2023-03-04T06:06:55.814Z,51.45
2023-03-04T06:07:57.746Z,50.23
2023-03-04T06:09:00.441Z,51.13
2023-03-04T06:10:02.353Z,51.13
2023-03-04T06:11:05.644Z,52.32
2023-03-04T06:12:07.750Z,52.80
2023-03-04T06:13:10.693Z,54.17
2023-03-04T06:14:12.760Z,51.78
2023-03-04T06:15:14.677Z,51.50
2023-03-04T06:16:16.838Z,50.20
2023-03-04T06:17:18.837Z,50.50
2023-03-04T06:18:20.685Z,49.15
2023-03-04T06:19:22.541Z,48.93
2023-03-04T06:20:24.477Z,50.80
2023-03-04T06:21:26.309Z,51.42
2023-03-04T06:22:28.107Z,55.45
2023-03-04T06:23:31.040Z,49.03
2023-03-04T06:24:32.831Z,47.47
2023-03-04T06:25:34.595Z,48.47
2023-03-04T06:26:36.882Z,49.78
2023-03-04T06:27:38.798Z,47.85
2023-03-04T06:28:40.799Z,49.58
2023-03-04T06:29:42.957Z,47.48
2023-03-04T06:30:44.723Z,46.42
2023-03-04T06:31:46.539Z,45.10
2023-03-04T06:32:48.414Z,44.17
2023-03-04T06:33:50.273Z,44.67
2023-03-04T06:34:52.079Z,45.25
2023-03-04T06:35:56.000Z,48.82
2023-03-04T06:36:58.188Z,62.97
2023-03-04T06:37:59.941Z,59.53
2023-03-04T06:39:07.048Z,49.42
2023-03-04T06:40:10.125Z,47.32
2023-03-04T06:41:13.017Z,44.90
2023-03-04T06:42:15.297Z,43.05
2023-03-04T06:43:17.085Z,43.20
2023-03-04T06:44:18.860Z,43.58
2023-03-04T06:45:20.621Z,42.25
2023-03-04T06:46:22.516Z,43.77
2023-03-04T06:47:25.001Z,42.58
2023-03-04T06:48:27.206Z,42.13
2023-03-04T06:49:29.011Z,43.47
2023-03-04T06:50:30.930Z,42.93
2023-03-04T06:51:32.950Z,43.45
2023-03-04T06:52:34.789Z,41.80
2023-03-04T06:53:37.599Z,43.12
2023-03-04T06:54:40.113Z,42.00
2023-03-04T06:55:41.983Z,43.08
2023-03-04T06:56:43.867Z,42.97
2023-03-04T06:57:48.133Z,45.32
2023-03-04T06:58:50.345Z,47.95
2023-03-04T06:59:52.174Z,42.73
2023-03-04T07:00:54.238Z,39.10
2023-03-04T07:01:56.243Z,39.60
2023-03-04T07:02:58.953Z,39.53
2023-03-04T07:04:01.035Z,39.33
2023-03-04T07:05:03.005Z,39.65
2023-03-04T07:06:04.964Z,40.15
2023-03-04T07:07:06.848Z,38.37
2023-03-04T07:08:08.788Z,37.67
2023-03-04T07:09:10.585Z,38.68
2023-03-04T07:10:12.621Z,37.60
2023-03-04T07:11:15.109Z,37.40
2023-03-04T07:12:16.996Z,37.62
2023-03-04T07:13:18.774Z,36.40
2023-03-04T07:14:22.429Z,36.75
2023-03-04T07:15:25.562Z,38.37
2023-03-04T07:16:27.805Z,38.03
2023-03-04T07:17:30.141Z,38.77
2023-03-04T07:18:32.145Z,40.57
2023-03-04T07:19:34.012Z,38.17
2023-03-04T07:20:35.809Z,36.18
2023-03-04T07:21:37.990Z,37.42
2023-03-04T07:22:39.851Z,35.97
2023-03-04T07:23:41.757Z,33.97
2023-03-04T07:24:43.660Z,35.80
2023-03-04T07:25:45.853Z,37.82
2023-03-04T07:26:47.691Z,37.75
2023-03-04T07:27:49.537Z,36.52
2023-03-04T07:28:52.909Z,35.90
2023-03-04T07:29:54.738Z,35.12
2023-03-04T07:30:56.668Z,34.93
2023-03-04T07:31:59.000Z,36.23
2023-03-04T07:33:00.904Z,35.13
2023-03-04T07:34:10.032Z,34.03
2023-03-04T07:35:11.879Z,34.25
2023-03-04T07:36:15.000Z,32.93
2023-03-04T07:37:17.087Z,34.28
2023-03-04T07:38:18.870Z,35.43
2023-03-04T07:39:20.750Z,34.23
2023-03-04T07:40:22.846Z,34.25
2023-03-04T07:41:26.589Z,39.62
2023-03-04T07:42:28.526Z,39.65
2023-03-04T07:43:30.425Z,37.92
2023-03-04T07:44:32.260Z,38.12
2023-03-04T07:45:34.073Z,40.38
2023-03-04T07:46:36.219Z,40.77
2023-03-04T07:47:39.823Z,33.52
2023-03-04T07:48:41.689Z,32.02
2023-03-04T07:49:43.470Z,33.40
2023-03-04T07:50:45.253Z,35.60
2023-03-04T07:51:47.074Z,36.13
2023-03-04T07:52:51.070Z,36.52
2023-03-04T07:53:57.233Z,36.22
2023-03-04T07:54:59.037Z,34.52
2023-03-04T07:56:02.598Z,32.85
2023-03-04T07:57:05.016Z,34.90
2023-03-04T07:58:06.818Z,37.45
2023-03-04T07:59:08.734Z,35.00
2023-03-04T08:00:12.405Z,31.63
2023-03-04T08:01:18.207Z,30.92
2023-03-04T08:02:20.121Z,31.62
2023-03-04T08:03:22.347Z,31.28
2023-03-04T08:04:24.171Z,30.98
2023-03-04T08:05:25.925Z,30.55
2023-03-04T08:06:28.650Z,31.20
2023-03-04T08:07:30.434Z,29.53
2023-03-04T08:08:32.288Z,30.88
2023-03-04T08:09:34.075Z,30.65
2023-03-04T08:10:36.646Z,30.78
2023-03-04T08:11:38.632Z,31.85
2023-03-04T08:12:40.750Z,31.80
2023-03-04T08:13:43.478Z,31.23
2023-03-04T08:14:45.348Z,31.88
2023-03-04T08:15:47.171Z,36.22
2023-03-04T08:16:49.109Z,33.32
2023-03-04T08:17:51.045Z,34.22
2023-03-04T08:18:58.063Z,31.47
2023-03-04T08:19:59.856Z,30.05
2023-03-04T08:21:01.895Z,28.88
2023-03-04T08:22:03.709Z,28.83
2023-03-04T08:23:05.840Z,29.73
2023-03-04T08:24:10.275Z,30.80
2023-03-04T08:25:12.087Z,30.43
2023-03-04T08:26:17.976Z,29.97
2023-03-04T08:27:20.232Z,31.75
2023-03-04T08:28:22.186Z,32.10
2023-03-04T08:29:24.843Z,31.83
2023-03-04T08:30:26.974Z,30.52
2023-03-04T08:31:29.287Z,32.82
2023-03-04T08:32:31.179Z,36.98
2023-03-04T08:33:33.348Z,36.83
2023-03-04T08:34:35.068Z,36.62
2023-03-04T08:35:39.037Z,35.25
2023-03-04T08:36:42.667Z,34.13
2023-03-04T08:37:46.050Z,32.70
2023-03-04T08:38:47.822Z,31.63
2023-03-04T08:39:49.607Z,31.42
2023-03-04T08:40:55.284Z,29.72
2023-03-04T08:41:57.072Z,32.77
2023-03-04T08:42:58.890Z,33.12
2023-03-04T08:44:01.367Z,34.63
2023-03-04T08:45:03.637Z,32.35
2023-03-04T08:46:06.291Z,32.98
2023-03-04T08:47:10.287Z,34.12
2023-03-04T08:48:12.154Z,33.77
2023-03-04T08:49:14.748Z,31.83
2023-03-04T08:50:16.750Z,29.90
2023-03-04T08:51:19.542Z,30.32
2023-03-04T08:52:21.335Z,30.58
2023-03-04T08:53:23.850Z,31.12
2023-03-04T08:54:25.725Z,31.72
2023-03-04T08:55:27.576Z,33.75
2023-03-04T08:56:29.358Z,33.88
2023-03-04T08:57:31.245Z,32.28
2023-03-04T08:58:34.585Z,34.15
2023-03-04T08:59:38.422Z,34.25
2023-03-04T09:00:43.921Z,33.48
2023-03-04T09:01:45.870Z,32.43
2023-03-04T09:02:47.815Z,32.37
2023-03-04T09:03:49.721Z,33.13
2023-03-04T09:04:51.585Z,34.52
2023-03-04T09:05:53.432Z,36.60
2023-03-04T09:06:55.268Z,34.52
2023-03-04T09:07:57.357Z,31.07
2023-03-04T09:08:59.157Z,29.83
2023-03-04T09:10:00.944Z,30.10
2023-03-04T09:11:03.489Z,32.63
2023-03-04T09:12:05.451Z,32.00
2023-03-04T09:13:07.425Z,33.63
2023-03-04T09:14:09.404Z,32.23
2023-03-04T09:15:12.134Z,29.88
2023-03-04T09:16:14.864Z,30.97
2023-03-04T09:17:16.968Z,34.73
2023-03-04T09:18:21.200Z,42.32
2023-03-04T09:19:23.077Z,36.70
2023-03-04T09:20:24.886Z,40.00
2023-03-04T09:21:26.815Z,36.75
2023-03-04T09:22:28.985Z,42.88
2023-03-04T09:23:30.881Z,34.72
2023-03-04T09:24:34.457Z,37.58
2023-03-04T09:25:37.845Z,39.47
2023-03-04T09:26:39.874Z,33.35
2023-03-04T09:27:41.939Z,34.10
2023-03-04T09:28:43.834Z,36.28
2023-03-04T09:29:45.801Z,33.85
2023-03-04T09:30:48.589Z,32.27
2023-03-04T09:31:50.551Z,34.63
2023-03-04T09:32:52.419Z,35.92
2023-03-04T09:33:55.597Z,35.22
2023-03-04T09:34:57.360Z,31.23
2023-03-04T09:35:59.322Z,34.35
2023-03-04T09:37:01.265Z,37.72
2023-03-04T09:38:03.385Z,42.40
2023-03-04T09:39:06.053Z,39.97
2023-03-04T09:40:08.726Z,39.43
2023-03-04T09:41:17.301Z,37.65
2023-03-04T09:42:27.658Z,36.32
2023-03-04T09:43:32.074Z,34.55
2023-03-04T09:44:40.905Z,42.05
2023-03-04T09:45:49.297Z,34.55
2023-03-04T09:46:51.996Z,32.77
2023-03-04T09:47:55.306Z,33.18
2023-03-04T09:48:57.097Z,32.20
2023-03-04T09:50:02.685Z,32.43
2023-03-04T09:51:23.058Z,32.12
2023-03-04T09:52:27.627Z,32.98
2023-03-04T09:53:38.309Z,32.80
2023-03-04T09:54:40.222Z,32.45
2023-03-04T09:55:47.049Z,32.12
2023-03-04T09:56:51.704Z,34.03
2023-03-04T09:58:00.918Z,32.32
2023-03-04T09:59:23.019Z,35.23
2023-03-04T10:00:31.153Z,34.30
2023-03-04T10:01:55.837Z,33.60
2023-03-04T10:03:12.282Z,32.82
2023-03-04T10:04:18.764Z,32.93
2023-03-04T10:05:23.305Z,32.63
2023-03-04T10:06:25.666Z,31.85
2023-03-04T10:07:34.587Z,30.45
2023-03-04T10:08:38.560Z,31.75
2023-03-04T10:09:59.621Z,33.63
2023-03-04T10:11:04.174Z,30.95
2023-03-04T10:12:14.753Z,33.07
2023-03-04T10:13:20.034Z,32.30
2023-03-04T10:14:21.815Z,32.08
2023-03-04T10:15:44.114Z,32.87
2023-03-04T10:16:51.585Z,31.53
2023-03-04T10:18:02.678Z,30.32
2023-03-04T10:19:25.966Z,31.43
2023-03-04T10:20:33.325Z,32.25
2023-03-04T10:21:42.249Z,33.07
2023-03-04T10:22:47.234Z,30.93
2023-03-04T10:23:49.687Z,32.85
2023-03-04T10:24:54.897Z,31.58
2023-03-04T10:25:56.889Z,32.10
2023-03-04T10:27:10.565Z,32.73
2023-03-04T10:28:21.806Z,34.07
2023-03-04T10:29:24.911Z,32.77
2023-03-04T10:30:29.738Z,29.87
2023-03-04T10:31:38.403Z,30.78
2023-03-04T10:32:46.899Z,30.48
2023-03-04T10:33:49.440Z,30.27
2023-03-04T10:34:51.285Z,30.53
2023-03-04T10:36:00.729Z,31.85
2023-03-04T10:37:07.512Z,32.03
2023-03-04T10:38:09.978Z,35.37
2023-03-04T10:39:22.923Z,34.35
2023-03-04T10:40:25.921Z,31.05
2023-03-04T10:41:30.305Z,31.97
2023-03-04T10:42:37.455Z,31.72
2023-03-04T10:43:40.517Z,30.58
2023-03-04T10:44:56.429Z,32.08
2023-03-04T10:45:58.886Z,30.35
2023-03-04T10:47:01.667Z,30.27
2023-03-04T10:48:03.674Z,30.78
2023-03-04T10:49:05.906Z,30.27
2023-03-04T10:50:23.243Z,31.85
2023-03-04T10:51:28.628Z,34.72
2023-03-04T10:52:32.055Z,34.18
2023-03-04T10:53:39.231Z,32.62
2023-03-04T10:54:53.018Z,32.38
2023-03-04T10:55:54.736Z,31.05
2023-03-04T10:57:16.768Z,28.57
2023-03-04T10:58:19.328Z,27.25
2023-03-04T10:59:50.943Z,24.03
2023-03-04T11:01:05.127Z,24.63
2023-03-04T11:02:33.577Z,25.80
2023-03-04T11:03:37.012Z,26.37
2023-03-04T11:04:38.904Z,26.92
2023-03-04T11:05:40.760Z,27.02
2023-03-04T11:06:42.598Z,26.43
2023-03-04T11:07:57.320Z,30.98
2023-03-04T11:09:00.092Z,42.45
2023-03-04T11:10:36.901Z,81.95
2023-03-04T11:11:44.482Z,78.20
2023-03-04T11:12:52.178Z,67.22
2023-03-04T11:14:01.444Z,39.42
2023-03-04T11:15:04.035Z,42.67
2023-03-04T11:16:25.745Z,35.28
2023-03-04T11:17:31.747Z,29.67
2023-03-04T11:18:43.802Z,28.60
2023-03-04T11:19:50.461Z,30.68
2023-03-04T11:20:54.311Z,29.90
2023-03-04T11:21:58.798Z,29.72
2023-03-04T11:23:05.644Z,30.93
2023-03-04T11:24:27.477Z,36.58
2023-03-04T11:25:35.383Z,40.95
2023-03-04T11:26:45.953Z,29.58
2023-03-04T11:27:54.046Z,26.52
2023-03-04T11:29:07.916Z,26.10
2023-03-04T11:30:18.743Z,25.78
2023-03-04T11:31:24.030Z,25.43
2023-03-04T11:32:43.642Z,24.33
2023-03-04T11:33:58.569Z,25.43
2023-03-04T11:35:08.845Z,25.85
2023-03-04T11:36:19.628Z,26.42
2023-03-04T11:37:43.947Z,27.08
2023-03-04T11:38:48.484Z,27.93
2023-03-04T11:39:58.920Z,28.78
2023-03-04T11:41:11.806Z,27.03
2023-03-04T11:42:32.116Z,29.50
2023-03-04T11:43:38.475Z,30.38
2023-03-04T11:44:41.521Z,30.07
2023-03-04T11:46:08.280Z,29.57
2023-03-04T11:47:29.825Z,30.00
2023-03-04T11:48:34.547Z,29.93
2023-03-04T11:50:05.420Z,30.00
2023-03-04T11:51:18.976Z,30.95
2023-03-04T11:52:54.372Z,29.88
2023-03-04T11:54:15.526Z,31.70
2023-03-04T11:55:40.898Z,30.90
2023-03-04T11:56:53.329Z,31.40
2023-03-04T11:58:15.697Z,32.07
2023-03-04T11:59:29.047Z,32.57
2023-03-04T12:00:39.916Z,32.25
2023-03-04T12:01:54.473Z,33.93
2023-03-04T12:03:33.967Z,33.67
2023-03-04T12:04:54.291Z,33.13
2023-03-04T12:06:33.230Z,34.80
2023-03-04T12:07:53.912Z,32.33
2023-03-04T12:09:30.808Z,32.45
2023-03-04T12:10:52.761Z,30.82
2023-03-04T12:12:18.403Z,33.05
2023-03-04T12:13:44.409Z,33.42
2023-03-04T12:14:58.281Z,35.13
2023-03-04T12:16:15.287Z,32.42
2023-03-04T12:17:43.875Z,31.77
2023-03-04T12:19:04.375Z,33.40
2023-03-04T12:20:25.089Z,31.23
2023-03-04T12:21:48.012Z,31.30
2023-03-04T12:23:08.553Z,30.98
2023-03-04T12:24:22.414Z,31.82
2023-03-04T12:25:34.380Z,30.87
2023-03-04T12:26:46.290Z,31.97
2023-03-04T12:28:09.716Z,33.05
2023-03-04T12:29:43.833Z,36.22
2023-03-04T12:30:48.684Z,32.93
2023-03-04T12:32:17.573Z,31.50
2023-03-04T12:33:20.535Z,30.15
2023-03-04T12:34:32.859Z,30.23
2023-03-04T12:35:41.940Z,29.02
2023-03-04T12:37:00.004Z,30.42
2023-03-04T12:38:20.526Z,30.58
2023-03-04T12:39:40.942Z,30.98
2023-03-04T12:41:04.440Z,30.50
2023-03-04T12:42:22.985Z,30.12
2023-03-04T12:43:57.011Z,29.32
2023-03-04T12:45:26.253Z,28.92
2023-03-04T12:46:49.002Z,27.17
2023-03-04T12:48:15.453Z,29.52
2023-03-04T12:49:23.395Z,27.12
2023-03-04T12:50:28.107Z,26.67
2023-03-04T12:51:51.637Z,26.77
2023-03-04T12:53:05.359Z,24.72
2023-03-04T12:54:19.477Z,24.60
2023-03-04T12:55:25.399Z,26.27
2023-03-04T12:56:47.014Z,25.98
2023-03-04T12:57:50.411Z,26.35
2023-03-04T12:58:53.656Z,26.93
2023-03-04T12:59:57.781Z,27.17
2023-03-04T13:01:23.696Z,25.80
2023-03-04T13:02:37.935Z,25.83
2023-03-04T13:03:56.543Z,24.43
2023-03-04T13:05:19.739Z,25.17
2023-03-04T13:06:30.592Z,25.30
2023-03-04T13:07:41.526Z,23.35
2023-03-04T13:08:52.382Z,24.48
2023-03-04T13:10:01.055Z,24.47
2023-03-04T13:11:28.156Z,24.53
2023-03-04T13:12:47.401Z,24.50
2023-03-04T13:14:09.512Z,25.12
2023-03-04T13:15:11.856Z,25.85
2023-03-04T13:16:13.632Z,27.32
2023-03-04T13:17:38.495Z,24.68
2023-03-04T13:18:40.391Z,24.05
2023-03-04T13:19:45.425Z,23.53
2023-03-04T13:20:47.309Z,24.72
2023-03-04T13:21:49.368Z,23.08
2023-03-04T13:23:09.411Z,21.62
2023-03-04T13:24:46.341Z,23.18
2023-03-04T13:25:56.832Z,23.72
2023-03-04T13:26:58.812Z,23.35
2023-03-04T13:28:00.630Z,24.35
2023-03-04T13:29:14.557Z,25.50
2023-03-04T13:30:31.374Z,24.33
2023-03-04T13:32:13.459Z,26.07
2023-03-04T13:33:15.398Z,25.90
2023-03-04T13:34:46.295Z,24.92
2023-03-04T13:35:48.394Z,24.00
2023-03-04T13:36:56.022Z,23.32
2023-03-04T13:37:59.641Z,23.25
2023-03-04T13:39:25.738Z,21.60
2023-03-04T13:40:34.338Z,24.40
2023-03-04T13:41:49.945Z,23.42
2023-03-04T13:42:51.750Z,21.93
2023-03-04T13:43:55.364Z,22.13
2023-03-04T13:44:59.637Z,24.17
2023-03-04T13:46:24.393Z,31.88
2023-03-04T13:47:33.655Z,28.80
2023-03-04T13:48:37.332Z,35.95
2023-03-04T13:49:39.147Z,41.12
2023-03-04T13:50:45.974Z,57.25
2023-03-04T13:51:47.936Z,29.88
2023-03-04T13:52:50.288Z,29.30
2023-03-04T13:53:58.509Z,30.88
2023-03-04T13:55:45.157Z,46.10
2023-03-04T13:57:22.303Z,42.70
2023-03-04T13:58:27.026Z,27.97
2023-03-04T13:59:42.538Z,29.47
2023-03-04T14:00:53.509Z,27.82